Time;durP1;ratioP1;P1;durP2;ratioP2;P2;SDS_P1;SDS_P2;PMS_P1;PMS_P2;Temp;Humidity;BMP_temperature;BMP_pressure;BME280_temperature;BME280_humidity;BME280_pressure;Samples;Min_cycle;Max_cycle;Signal;HPM_P1;HPM_P2
2024/01/01 00:00:52;;;;;;;;;;;;;;;9.32;68.52;98933.87;4370360;32;33687;-87
2024/01/01 00:03:21;;;;;;;;;;;;;;;9.13;69.67;98936.00;4375720;32;34474;-87
2024/01/01 00:05:52;;;;;;;;;;;;;;;8.93;71.22;98927.75;4369797;32;33749;-88
2024/01/01 00:08:26;;;;;;;;;;;;;;;9.33;69.29;98934.75;4374416;32;33933;-87
2024/01/01 00:10:55;;;;;;;;;;;;;;;9.14;69.79;98929.94;4359889;32;33756;-89
2024/01/01 00:13:29;;;;;;;;;;;;;;;9.22;69.55;98934.09;4375567;32;33752;-89
2024/01/01 00:15:58;;;;;;;;;;;;;;;9.12;70.03;98929.09;4370266;32;33025;-88
2024/01/01 00:18:27;;;;;;;;;;;;;;;9.02;70.41;98924.16;4374428;32;34114;-88
2024/01/01 00:20:59;;;;;;;;;;;;;;;8.92;70.60;98932.06;4369620;32;33906;-87
2024/01/01 00:23:32;;;;;;;;;;;;;;;9.08;70.29;98929.19;4368748;32;33562;-88
2024/01/01 00:26:00;;;;;;;;;;;;;;;8.91;70.83;98920.00;4375196;32;32657;-87
2024/01/01 00:28:30;;;;;;;;;;;;;;;9.00;70.65;98924.16;4365538;32;34667;-87
2024/01/01 00:31:01;;;;;;;;;;;;;;;8.91;71.43;98922.59;4369711;32;33567;-88
2024/01/01 00:33:39;;;;;;;;;;;;;;;8.90;71.08;98926.06;4369136;32;33482;-89
2024/01/01 00:36:07;;;;;;;;;;;;;;;8.60;72.76;98926.63;4374505;32;33996;-88
2024/01/01 00:38:41;;;;;;;;;;;;;;;8.60;73.25;98922.31;4373560;32;33665;-88
2024/01/01 00:41:16;;;;;;;;;;;;;;;8.72;72.72;98918.63;4368142;32;33916;-89
2024/01/01 00:43:45;;;;;;;;;;;;;;;8.75;72.82;98916.88;4368075;32;34125;-89
2024/01/01 00:46:16;;;;;;;;;;;;;;;8.18;75.26;98918.69;4370181;32;32727;-88
2024/01/01 00:48:45;;;;;;;;;;;;;;;8.94;72.12;98912.22;4375100;32;34776;-90
2024/01/01 00:51:21;;;;;;;;;;;;;;;8.88;72.33;98917.50;4359384;32;33732;-89
2024/01/01 00:53:52;;;;;;;;;;;;;;;8.96;71.73;98925.09;4355956;32;34164;-90
2024/01/01 00:56:20;;;;;;;;;;;;;;;8.43;74.63;98920.03;4368723;32;32972;-90
2024/01/01 00:58:49;;;;;;;;;;;;;;;8.76;72.83;98913.38;4367760;32;34718;-90
2024/01/01 01:01:18;;;;;;;;;;;;;;;8.91;72.47;98917.41;4373224;32;33322;-91
2024/01/01 01:03:49;;;;;;;;;;;;;;;8.89;72.41;98915.75;4366065;32;33760;-91
2024/01/01 01:06:19;;;;;;;;;;;;;;;8.75;72.69;98908.25;4356496;32;32491;-90
2024/01/01 01:08:55;;;;;;;;;;;;;;;8.39;74.95;98909.72;4368925;32;34261;-90
2024/01/01 01:11:26;;;;;;;;;;;;;;;8.54;73.71;98904.31;4364643;32;35508;-90
2024/01/01 01:13:56;;;;;;;;;;;;;;;8.61;74.18;98905.06;4369461;32;33957;-91
2024/01/01 01:16:28;;;;;;;;;;;;;;;8.33;75.19;98892.56;4370556;32;33058;-91
2024/01/01 01:18:57;;;;;;;;;;;;;;;8.51;74.88;98891.47;4369894;32;32912;-91
2024/01/01 01:21:29;;;;;;;;;;;;;;;8.79;73.29;98886.63;4362261;32;34430;-91
2024/01/01 01:23:59;;;;;;;;;;;;;;;8.86;73.47;98895.13;4372647;32;34621;-90
2024/01/01 01:26:28;;;;;;;;;;;;;;;8.88;73.46;98894.22;4356832;32;33550;-92
2024/01/01 01:28:57;;;;;;;;;;;;;;;8.71;73.52;98893.69;4370197;32;33905;-94
2024/01/01 01:31:27;;;;;;;;;;;;;;;8.59;74.13;98889.56;4368828;32;34552;-93
2024/01/01 01:33:59;;;;;;;;;;;;;;;8.66;74.33;98885.16;4360149;32;32554;-94
2024/01/01 01:36:29;;;;;;;;;;;;;;;8.74;73.78;98885.84;4372683;32;33963;-94
2024/01/01 01:39:02;;;;;;;;;;;;;;;8.81;73.58;98879.69;4357909;32;34148;-94
2024/01/01 01:41:31;;;;;;;;;;;;;;;8.75;74.00;98885.84;4364769;32;33896;-94
2024/01/01 01:44:03;;;;;;;;;;;;;;;8.72;74.13;98879.84;4368932;32;33843;-93
2024/01/01 01:46:31;;;;;;;;;;;;;;;8.65;74.22;98870.50;4375747;32;32600;-92
2024/01/01 01:49:03;;;;;;;;;;;;;;;8.68;74.58;98875.66;4369697;32;33273;-93
2024/01/01 01:51:34;;;;;;;;;;;;;;;8.69;74.68;98867.00;4368895;32;33914;-93
2024/01/01 01:54:05;;;;;;;;;;;;;;;8.45;76.05;98860.53;4364107;32;33452;-92
2024/01/01 01:56:37;;;;;;;;;;;;;;;8.65;74.54;98853.28;4361076;32;32567;-93
2024/01/01 01:59:05;;;;;;;;;;;;;;;8.62;75.17;98852.47;4373639;32;33161;-92
2024/01/01 02:01:42;;;;;;;;;;;;;;;8.84;74.63;98855.50;4356609;32;32667;-92
2024/01/01 02:04:11;;;;;;;;;;;;;;;9.10;74.50;98860.16;4368285;32;33133;-92
2024/01/01 02:06:39;;;;;;;;;;;;;;;9.17;74.42;98849.63;4363059;32;32300;-92
2024/01/01 02:09:11;;;;;;;;;;;;;;;9.15;74.77;98845.38;4376252;32;33769;-92
2024/01/01 02:11:45;;;;;;;;;;;;;;;9.10;75.71;98847.22;4363348;32;33866;-92
2024/01/01 02:14:15;;;;;;;;;;;;;;;9.15;76.02;98843.63;4370713;32;33800;-93
2024/01/01 02:16:45;;;;;;;;;;;;;;;9.38;75.44;98843.16;4371196;32;32610;-92
2024/01/01 02:19:16;;;;;;;;;;;;;;;9.45;74.87;98848.19;4370292;32;34551;-91
2024/01/01 02:21:44;;;;;;;;;;;;;;;9.49;74.99;98842.91;4362598;32;33157;-92
2024/01/01 02:24:20;;;;;;;;;;;;;;;9.50;74.92;98841.19;4346929;32;34199;-92
2024/01/01 02:26:57;;;;;;;;;;;;;;;9.55;74.59;98834.16;4357500;32;31594;-90
2024/01/01 02:29:26;;;;;;;;;;;;;;;9.53;75.14;98829.00;4366597;32;33828;-91
2024/01/01 02:31:57;;;;;;;;;;;;;;;9.49;75.22;98822.19;4369742;32;33922;-93
2024/01/01 02:34:27;;;;;;;;;;;;;;;9.47;74.60;98811.06;4374288;32;34457;-93
2024/01/01 02:36:58;;;;;;;;;;;;;;;9.24;74.81;98811.53;4371935;32;32586;-92
2024/01/01 02:39:37;;;;;;;;;;;;;;;9.36;74.14;98805.25;4359357;32;32671;-92
2024/01/01 02:42:05;;;;;;;;;;;;;;;9.42;73.36;98806.84;4370735;32;33404;-91
2024/01/01 02:44:48;;;;;;;;;;;;;;;9.30;73.88;98807.97;4359679;32;33444;-93
2024/01/01 02:47:24;;;;;;;;;;;;;;;9.33;73.53;98808.75;4376237;32;34037;-93
2024/01/01 02:49:53;;;;;;;;;;;;;;;9.30;73.68;98803.66;4362606;32;33748;-93
2024/01/01 02:52:22;;;;;;;;;;;;;;;9.56;71.95;98794.44;4370682;32;34614;-94
2024/01/01 02:54:52;;;;;;;;;;;;;;;9.21;73.32;98787.50;4370421;32;34435;-93
2024/01/01 02:57:22;;;;;;;;;;;;;;;9.17;73.42;98786.69;4375055;32;33661;-93
2024/01/01 02:59:51;;;;;;;;;;;;;;;9.28;73.16;98782.13;4364067;32;34162;-92
2024/01/01 03:02:22;;;;;;;;;;;;;;;9.32;72.85;98782.91;4349971;32;33263;-91
2024/01/01 03:04:50;;;;;;;;;;;;;;;9.17;73.59;98778.94;4370577;32;34835;-92
2024/01/01 03:07:22;;;;;;;;;;;;;;;9.49;72.44;98782.50;4375932;32;33710;-92
2024/01/01 03:09:52;;;;;;;;;;;;;;;9.50;72.48;98773.87;4369450;32;33596;-90
2024/01/01 03:12:24;;;;;;;;;;;;;;;9.55;72.36;98777.22;4355868;32;34843;-90
2024/01/01 03:14:53;;;;;;;;;;;;;;;9.56;72.45;98786.66;4367245;32;34380;-91
2024/01/01 03:17:25;;;;;;;;;;;;;;;9.59;72.01;98792.62;4374267;32;33701;-90
2024/01/01 03:19:54;;;;;;;;;;;;;;;9.56;72.07;98804.78;4375719;32;33653;-91
2024/01/01 03:22:23;;;;;;;;;;;;;;;9.26;73.50;98799.44;4356258;32;33657;-90
2024/01/01 03:24:56;;;;;;;;;;;;;;;8.91;75.24;98811.37;4367471;32;34525;-90
2024/01/01 03:27:24;;;;;;;;;;;;;;;8.71;76.70;98818.69;4375639;32;32940;-90
2024/01/01 03:29:53;;;;;;;;;;;;;;;8.86;76.51;98825.28;4364714;32;33626;-90
2024/01/01 03:32:22;;;;;;;;;;;;;;;9.13;75.02;98816.97;4361358;32;33738;-92
2024/01/01 03:35:03;;;;;;;;;;;;;;;9.14;75.38;98825.56;4357801;32;34626;-94
2024/01/01 03:37:36;;;;;;;;;;;;;;;9.04;76.19;98811.97;4359337;32;33186;-94
2024/01/01 03:40:10;;;;;;;;;;;;;;;9.23;75.51;98811.56;4370789;32;33333;-93
2024/01/01 03:42:39;;;;;;;;;;;;;;;9.15;76.02;98822.94;4376475;32;33471;-93
2024/01/01 03:45:10;;;;;;;;;;;;;;;9.18;75.53;98809.09;4375208;32;33812;-94
2024/01/01 03:47:39;;;;;;;;;;;;;;;9.01;76.33;98806.84;4371755;32;34681;-94
2024/01/01 03:50:16;;;;;;;;;;;;;;;9.13;76.09;98798.84;4369012;32;32397;-95
2024/01/01 03:52:45;;;;;;;;;;;;;;;8.70;77.43;98804.06;4369190;32;33469;-94
2024/01/01 03:55:17;;;;;;;;;;;;;;;8.29;79.21;98797.91;4348891;32;32441;-93
2024/01/01 03:57:47;;;;;;;;;;;;;;;8.06;80.31;98791.41;4356269;32;33715;-93
2024/01/01 04:00:18;;;;;;;;;;;;;;;8.13;79.57;98787.84;4356052;32;34384;-94
2024/01/01 04:02:48;;;;;;;;;;;;;;;7.98;80.19;98772.63;4355665;32;34245;-93
2024/01/01 04:05:18;;;;;;;;;;;;;;;7.86;80.26;98775.41;4355815;32;32830;-94
2024/01/01 04:07:47;;;;;;;;;;;;;;;7.89;79.63;98772.78;4360905;32;32417;-92
2024/01/01 04:10:22;;;;;;;;;;;;;;;8.01;77.94;98775.16;4355601;32;34021;-92
2024/01/01 04:12:52;;;;;;;;;;;;;;;7.60;78.90;98768.09;4337028;33;32607;-93
2024/01/01 04:15:23;;;;;;;;;;;;;;;7.57;77.85;98766.41;4328554;33;34557;-91
2024/01/01 04:17:52;;;;;;;;;;;;;;;7.35;78.48;98768.47;4348090;32;33835;-91
2024/01/01 04:20:21;;;;;;;;;;;;;;;7.22;79.38;98769.53;4343482;33;33364;-92
2024/01/01 04:22:53;;;;;;;;;;;;;;;7.34;78.25;98773.66;4340366;33;34251;-93
2024/01/01 04:25:23;;;;;;;;;;;;;;;7.10;79.41;98765.38;4341679;33;33686;-91
2024/01/01 04:27:53;;;;;;;;;;;;;;;7.19;79.39;98769.56;4345022;33;32600;-91
2024/01/01 04:30:24;;;;;;;;;;;;;;;7.22;79.29;98770.41;4354046;32;34148;-91
2024/01/01 04:32:53;;;;;;;;;;;;;;;7.21;78.69;98765.25;4354417;32;34174;-91
2024/01/01 04:35:28;;;;;;;;;;;;;;;6.90;79.63;98762.25;4349530;32;34427;-90
2024/01/01 04:37:57;;;;;;;;;;;;;;;6.76;80.01;98771.00;4357540;32;32995;-90
2024/01/01 04:40:32;;;;;;;;;;;;;;;6.84;79.47;98774.34;4360735;32;33974;-90
2024/01/01 04:43:02;;;;;;;;;;;;;;;6.96;78.56;98775.91;4359385;32;34727;-89
2024/01/01 04:45:37;;;;;;;;;;;;;;;6.79;79.05;98783.84;4355134;32;33679;-88
2024/01/01 04:48:12;;;;;;;;;;;;;;;6.63;79.77;98797.78;4356269;32;33012;-88
2024/01/01 04:50:41;;;;;;;;;;;;;;;6.60;79.77;98793.53;4355383;32;33567;-88
2024/01/01 04:53:15;;;;;;;;;;;;;;;6.64;79.99;98796.91;4360778;32;33996;-89
2024/01/01 04:55:44;;;;;;;;;;;;;;;6.49;80.11;98802.25;4344716;32;33612;-89
2024/01/01 04:58:17;;;;;;;;;;;;;;;6.61;79.58;98800.38;4341650;33;33595;-89
2024/01/01 05:00:45;;;;;;;;;;;;;;;6.70;78.87;98803.75;4340061;33;34839;-89
2024/01/01 05:03:14;;;;;;;;;;;;;;;6.76;77.99;98793.34;4352269;32;33595;-89
2024/01/01 05:05:43;;;;;;;;;;;;;;;6.53;78.48;98801.34;4360808;32;34183;-89
2024/01/01 05:08:12;;;;;;;;;;;;;;;6.46;79.19;98799.72;4358131;32;33296;-89
2024/01/01 05:10:45;;;;;;;;;;;;;;;6.62;78.48;98814.16;4356203;32;33685;-89
2024/01/01 05:13:20;;;;;;;;;;;;;;;6.19;79.39;98797.41;4355678;32;33514;-89
2024/01/01 05:15:49;;;;;;;;;;;;;;;6.41;78.58;98787.72;4366872;32;33574;-90
2024/01/01 05:18:17;;;;;;;;;;;;;;;6.15;79.81;98776.84;4370851;32;33508;-90
2024/01/01 05:20:49;;;;;;;;;;;;;;;6.11;79.26;98788.03;4358567;32;33138;-89
2024/01/01 05:23:17;;;;;;;;;;;;;;;6.11;79.35;98786.34;4371320;32;33773;-90
2024/01/01 05:25:54;;;;;;;;;;;;;;;6.01;79.82;98796.72;4371264;32;33864;-90
2024/01/01 05:28:25;;;;;;;;;;;;;;;5.96;80.60;98800.19;4376798;32;33073;-92
2024/01/01 05:30:54;;;;;;;;;;;;;;;5.90;81.98;98791.66;4360019;32;34541;-93
2024/01/01 05:33:25;;;;;;;;;;;;;;;6.01;81.97;98791.56;4370841;32;33379;-91
2024/01/01 05:35:53;;;;;;;;;;;;;;;6.24;80.59;98783.63;4371739;32;34118;-92
2024/01/01 05:38:29;;;;;;;;;;;;;;;5.82;81.89;98785.69;4377397;32;34342;-92
2024/01/01 05:40:58;;;;;;;;;;;;;;;5.93;81.88;98768.44;4362819;32;33277;-93
2024/01/01 05:43:30;;;;;;;;;;;;;;;5.92;82.29;98774.44;4345628;32;32625;-93
2024/01/01 05:45:58;;;;;;;;;;;;;;;5.95;82.45;98777.03;4369089;32;34033;-93
2024/01/01 05:48:30;;;;;;;;;;;;;;;6.15;82.05;98782.00;4357089;32;32640;-93
2024/01/01 05:51:16;;;;;;;;;;;;;;;6.32;81.01;98776.66;4348622;32;32726;-92
2024/01/01 05:53:45;;;;;;;;;;;;;;;6.26;80.72;98780.19;4362729;32;34511;-91
2024/01/01 05:56:17;;;;;;;;;;;;;;;6.29;80.72;98777.56;4357207;32;33663;-93
2024/01/01 05:58:47;;;;;;;;;;;;;;;6.21;81.35;98774.22;4344932;32;32190;-93
2024/01/01 06:01:19;;;;;;;;;;;;;;;6.39;80.68;98776.59;4356415;32;34011;-93
2024/01/01 06:03:47;;;;;;;;;;;;;;;6.51;80.33;98765.28;4362358;32;33369;-92
2024/01/01 06:06:24;;;;;;;;;;;;;;;6.41;80.28;98759.37;4356714;32;34112;-93
2024/01/01 06:08:53;;;;;;;;;;;;;;;6.30;80.95;98763.78;4347370;32;33039;-93
2024/01/01 06:11:27;;;;;;;;;;;;;;;6.33;80.87;98762.91;4342631;32;32792;-91
2024/01/01 06:14:02;;;;;;;;;;;;;;;6.26;80.36;98756.13;4356657;32;34365;-92
2024/01/01 06:16:30;;;;;;;;;;;;;;;6.41;80.20;98763.69;4362115;32;34798;-92
2024/01/01 06:18:59;;;;;;;;;;;;;;;6.35;80.37;98766.31;4359492;32;33420;-91
2024/01/01 06:21:29;;;;;;;;;;;;;;;6.35;80.55;98767.16;4364673;32;33795;-91
2024/01/01 06:24:00;;;;;;;;;;;;;;;6.28;80.66;98760.41;4371494;32;33508;-91
2024/01/01 06:26:33;;;;;;;;;;;;;;;6.21;80.58;98766.50;4368073;32;33585;-91
2024/01/01 06:29:05;;;;;;;;;;;;;;;6.07;80.99;98758.06;4357148;32;34043;-91
2024/01/01 06:31:34;;;;;;;;;;;;;;;5.91;82.25;98752.16;4356450;32;33594;-90
2024/01/01 06:34:03;;;;;;;;;;;;;;;5.90;82.25;98747.88;4356769;32;33555;-90
2024/01/01 06:36:34;;;;;;;;;;;;;;;6.00;81.77;98766.72;4356454;32;33215;-92
2024/01/01 06:39:08;;;;;;;;;;;;;;;5.80;82.91;98777.12;4362210;32;34053;-91
2024/01/01 06:41:37;;;;;;;;;;;;;;;5.86;82.31;98770.22;4355896;32;33754;-91
2024/01/01 06:44:09;;;;;;;;;;;;;;;5.76;82.61;98776.31;4356083;32;33300;-93
2024/01/01 06:46:39;;;;;;;;;;;;;;;6.03;82.17;98771.81;4366199;32;33600;-92
2024/01/01 06:49:09;;;;;;;;;;;;;;;5.96;82.28;98774.44;4377177;32;34301;-93
2024/01/01 06:51:38;;;;;;;;;;;;;;;5.95;82.69;98783.03;4362236;32;33365;-92
2024/01/01 06:54:11;;;;;;;;;;;;;;;5.94;82.15;98786.50;4356264;32;34734;-93
2024/01/01 06:56:41;;;;;;;;;;;;;;;5.92;82.06;98775.31;4357713;32;34747;-95
2024/01/01 06:59:13;;;;;;;;;;;;;;;5.90;82.09;98773.63;4345834;32;33368;-94
2024/01/01 07:01:43;;;;;;;;;;;;;;;5.83;82.88;98782.28;4347844;32;33956;-94
2024/01/01 07:04:31;;;;;;;;;;;;;;;6.07;81.60;98794.94;4358083;32;34011;-95
2024/01/01 07:07:14;;;;;;;;;;;;;;;5.96;82.23;98799.34;4348081;32;34218;-95
2024/01/01 07:10:03;;;;;;;;;;;;;;;5.83;82.60;98798.56;4363681;32;32229;-94
2024/01/01 07:12:32;;;;;;;;;;;;;;;5.87;82.63;98810.56;4354816;32;34491;-94
2024/01/01 07:15:50;;;;;;;;;;;;;;;5.81;83.39;98820.03;4365862;32;33661;-94
2024/01/01 07:18:32;;;;;;;;;;;;;;;5.84;82.97;98836.28;4358478;32;33903;-94
2024/01/01 07:21:44;;;;;;;;;;;;;;;5.81;83.05;98851.78;4372944;32;32576;-94
2024/01/01 07:25:13;;;;;;;;;;;;;;;5.69;83.69;98857.00;4372248;32;33664;-94
2024/01/01 07:28:39;;;;;;;;;;;;;;;5.23;85.57;98870.97;4359930;32;34310;-95
2024/01/01 07:32:29;;;;;;;;;;;;;;;5.51;84.89;98876.84;4344497;32;33131;-94
2024/01/01 07:35:18;;;;;;;;;;;;;;;5.43;84.15;98881.16;4359349;32;33257;-95
2024/01/01 07:38:46;;;;;;;;;;;;;;;5.09;86.02;98894.19;4362597;32;34286;-94
2024/01/01 07:41:43;;;;;;;;;;;;;;;5.25;85.88;98899.28;4347073;32;33287;-94
2024/01/01 07:44:55;;;;;;;;;;;;;;;5.11;86.47;98900.19;4358579;32;33990;-94
2024/01/01 07:47:53;;;;;;;;;;;;;;;5.29;86.46;98900.94;4347952;32;33443;-94
2024/01/01 07:51:10;;;;;;;;;;;;;;;5.23;86.39;98903.56;4358049;32;34292;-94
2024/01/01 07:54:19;;;;;;;;;;;;;;;5.21;86.79;98901.00;4352487;32;35773;-93
2024/01/01 07:57:33;;;;;;;;;;;;;;;5.39;85.54;98917.19;4365089;32;33216;-94
2024/01/01 08:00:05;;;;;;;;;;;;;;;5.46;85.24;98919.75;4336138;32;830736;-94
2024/01/01 08:03:25;;;;;;;;;;;;;;;5.41;85.06;98924.03;4349186;32;34998;-94
2024/01/01 08:06:37;;;;;;;;;;;;;;;5.42;85.90;98918.06;4364450;32;33217;-95
2024/01/01 08:09:52;;;;;;;;;;;;;;;5.28;86.20;98920.69;4347825;32;33407;-94
2024/01/01 08:12:29;;;;;;;;;;;;;;;5.27;86.67;98925.84;4372411;32;31747;-94
2024/01/01 08:15:29;;;;;;;;;;;;;;;5.38;85.89;98926.63;4367542;32;33462;-94
2024/01/01 08:18:09;;;;;;;;;;;;;;;5.61;85.47;98923.12;4376824;32;33944;-95
2024/01/01 08:21:10;;;;;;;;;;;;;;;5.33;85.91;98931.78;4378043;32;34402;-95
2024/01/01 08:24:22;;;;;;;;;;;;;;;5.56;85.13;98929.13;4374432;32;33474;-93
2024/01/01 08:27:12;;;;;;;;;;;;;;;5.33;85.88;98930.94;4360364;32;32484;-95
2024/01/01 08:30:30;;;;;;;;;;;;;;;5.53;84.84;98933.41;4375142;32;34133;-95
2024/01/01 08:33:10;;;;;;;;;;;;;;;5.54;85.21;98933.41;4356526;32;33183;-94
2024/01/01 08:35:43;;;;;;;;;;;;;;;5.47;84.93;98916.31;4370599;32;32886;-94
2024/01/01 08:38:15;;;;;;;;;;;;;;;5.32;85.50;98919.81;4362494;32;34217;-94
2024/01/01 08:40:47;;;;;;;;;;;;;;;5.51;85.61;98928.31;4358697;32;33086;-94
2024/01/01 08:43:17;;;;;;;;;;;;;;;5.46;85.00;98917.19;4356603;32;34009;-94
2024/01/01 08:45:51;;;;;;;;;;;;;;;5.64;84.68;98925.66;4356467;32;33314;-92
2024/01/01 08:48:20;;;;;;;;;;;;;;;5.69;83.84;98931.63;4370648;32;34335;-93
2024/01/01 08:50:48;;;;;;;;;;;;;;;5.47;85.37;98926.59;4365104;32;34630;-92
2024/01/01 08:53:23;;;;;;;;;;;;;;;5.43;85.32;98935.19;4367720;32;33736;-93
2024/01/01 08:55:54;;;;;;;;;;;;;;;5.55;84.80;98921.41;4350732;32;34961;-92
2024/01/01 08:58:23;;;;;;;;;;;;;;;5.68;84.70;98925.63;4366780;32;34385;-94
2024/01/01 09:00:53;;;;;;;;;;;;;;;5.53;85.25;98943.72;4361223;32;32843;-93
2024/01/01 09:03:27;;;;;;;;;;;;;;;5.95;83.61;98946.94;4370344;32;34229;-93
2024/01/01 09:05:57;;;;;;;;;;;;;;;6.23;82.21;98942.44;4364490;32;32534;-93
2024/01/01 09:08:29;;;;;;;;;;;;;;;6.14;82.29;98942.53;4374372;32;33740;-93
2024/01/01 09:10:58;;;;;;;;;;;;;;;6.41;80.98;98938.88;4367653;32;34001;-93
2024/01/01 09:13:26;;;;;;;;;;;;;;;6.07;80.89;98940.87;4375575;32;33960;-92
2024/01/01 09:15:55;;;;;;;;;;;;;;;6.19;81.26;98940.78;4359139;32;32886;-92
2024/01/01 09:18:28;;;;;;;;;;;;;;;6.10;81.80;98933.13;4360867;32;33682;-93
2024/01/01 09:20:59;;;;;;;;;;;;;;;6.00;82.75;98924.59;4354540;32;33664;-93
2024/01/01 09:23:30;;;;;;;;;;;;;;;6.17;81.22;98921.91;4362362;32;34461;-93
2024/01/01 09:26:01;;;;;;;;;;;;;;;6.13;81.64;98925.34;4360735;32;33474;-92
2024/01/01 09:28:33;;;;;;;;;;;;;;;6.17;81.52;98932.22;4359935;32;34312;-92
2024/01/01 09:31:04;;;;;;;;;;;;;;;5.92;83.57;98921.19;4369456;32;34963;-92
2024/01/01 09:33:38;;;;;;;;;;;;;;;6.38;81.98;98916.56;4369402;32;34649;-91
2024/01/01 09:36:09;;;;;;;;;;;;;;;6.31;82.00;98919.22;4372653;32;33121;-92
2024/01/01 09:38:39;;;;;;;;;;;;;;;6.39;82.70;98920.84;4363728;32;34052;-90
2024/01/01 09:41:10;;;;;;;;;;;;;;;6.46;82.27;98923.38;4354844;32;35213;-89
2024/01/01 09:43:39;;;;;;;;;;;;;;;6.35;82.03;98919.16;4356546;32;33716;-88
2024/01/01 09:46:08;;;;;;;;;;;;;;;6.51;81.83;98913.88;4364212;32;33411;-88
2024/01/01 09:48:37;;;;;;;;;;;;;;;6.33;83.01;98922.62;4359815;32;33729;-88
2024/01/01 09:51:06;;;;;;;;;;;;;;;6.27;83.11;98928.69;4353460;32;34027;-88
2024/01/01 09:53:36;;;;;;;;;;;;;;;6.25;83.34;98925.25;4358214;32;34245;-88
2024/01/01 09:56:12;;;;;;;;;;;;;;;6.50;82.15;98919.91;4370062;32;33018;-88
2024/01/01 09:58:41;;;;;;;;;;;;;;;6.43;81.94;98921.69;4360656;32;34500;-87
2024/01/01 10:01:15;;;;;;;;;;;;;;;6.41;81.63;98938.88;4356887;32;33327;-87
2024/01/01 10:03:44;;;;;;;;;;;;;;;6.37;81.85;98945.78;4354280;32;34853;-87
2024/01/01 10:06:14;;;;;;;;;;;;;;;6.56;82.42;98937.88;4355061;32;32519;-87
2024/01/01 10:08:43;;;;;;;;;;;;;;;6.81;80.25;98941.06;4370676;32;33958;-87
2024/01/01 10:11:17;;;;;;;;;;;;;;;6.84;79.67;98947.06;4377192;32;34368;-87
2024/01/01 10:13:46;;;;;;;;;;;;;;;7.09;77.12;98949.37;4371418;32;33515;-86
2024/01/01 10:16:24;;;;;;;;;;;;;;;7.08;78.08;98955.44;4371888;32;33186;-86
2024/01/01 10:18:59;;;;;;;;;;;;;;;7.36;76.70;98950.78;4374042;32;33973;-87
2024/01/01 10:21:29;;;;;;;;;;;;;;;7.51;75.82;98939.41;4371112;32;34196;-87
2024/01/01 10:24:00;;;;;;;;;;;;;;;7.24;77.20;98935.47;4376492;32;34155;-87
2024/01/01 10:26:42;;;;;;;;;;;;;;;7.46;76.74;98936.88;4356921;32;33602;-87
2024/01/01 10:29:12;;;;;;;;;;;;;;;7.59;75.20;98937.59;4359311;32;33645;-87
2024/01/01 10:31:47;;;;;;;;;;;;;;;7.66;74.73;98941.81;4355935;32;34355;-87
2024/01/01 10:34:18;;;;;;;;;;;;;;;7.59;75.24;98940.19;4357033;32;34777;-88
2024/01/01 10:36:54;;;;;;;;;;;;;;;7.78;75.08;98933.06;4364386;32;33414;-87
2024/01/01 10:39:25;;;;;;;;;;;;;;;7.87;74.48;98937.22;4370554;32;34310;-88
2024/01/01 10:41:56;;;;;;;;;;;;;;;7.77;74.30;98935.66;4370494;32;34038;-88
2024/01/01 10:44:24;;;;;;;;;;;;;;;7.82;74.11;98918.34;4370076;32;33410;-88
2024/01/01 10:46:57;;;;;;;;;;;;;;;7.47;75.38;98930.03;4375325;32;32925;-88
2024/01/01 10:49:32;;;;;;;;;;;;;;;7.84;74.68;98927.78;4363121;32;34393;-88
2024/01/01 10:52:03;;;;;;;;;;;;;;;7.83;73.27;98909.75;4356269;32;34198;-88
2024/01/01 10:54:37;;;;;;;;;;;;;;;7.56;74.10;98892.91;4356494;32;33737;-89
2024/01/01 10:57:13;;;;;;;;;;;;;;;7.46;75.01;98913.66;4361895;32;33121;-89
2024/01/01 10:59:50;;;;;;;;;;;;;;;7.56;73.97;98914.41;4361731;32;33436;-89
2024/01/01 11:02:22;;;;;;;;;;;;;;;7.65;74.30;98928.91;4355694;32;34824;-89
2024/01/01 11:05:05;;;;;;;;;;;;;;;7.72;74.18;98922.78;4355965;32;34482;-88
2024/01/01 11:07:52;;;;;;;;;;;;;;;7.77;74.56;98933.91;4364142;32;33346;-88
2024/01/01 11:10:33;;;;;;;;;;;;;;;8.05;72.89;98936.09;4370540;32;34213;-89
2024/01/01 11:13:04;;;;;;;;;;;;;;;7.87;73.40;98925.16;4364746;32;34352;-89
2024/01/01 11:15:37;;;;;;;;;;;;;;;7.80;73.01;98923.53;4374084;32;33028;-89
2024/01/01 11:18:15;;;;;;;;;;;;;;;7.86;73.72;98933.78;4371059;32;33297;-89
2024/01/01 11:20:49;;;;;;;;;;;;;;;7.98;73.07;98925.00;4368795;32;34165;-88
2024/01/01 11:23:33;;;;;;;;;;;;;;;7.82;73.83;98929.53;4369621;32;33395;-88
2024/01/01 11:26:01;;;;;;;;;;;;;;;7.88;72.74;98926.87;4367552;32;33904;-89
2024/01/01 11:28:40;;;;;;;;;;;;;;;7.77;73.70;98930.47;4357375;32;31862;-89
2024/01/01 11:31:09;;;;;;;;;;;;;;;7.81;73.88;98939.91;4366833;32;34417;-89
2024/01/01 11:33:41;;;;;;;;;;;;;;;8.01;72.31;98948.19;4364165;32;34395;-87
2024/01/01 11:36:16;;;;;;;;;;;;;;;7.82;72.48;98944.19;4366797;32;33313;-88
2024/01/01 11:38:49;;;;;;;;;;;;;;;7.73;72.75;98944.28;4371411;32;33438;-88
2024/01/01 11:41:23;;;;;;;;;;;;;;;7.80;73.23;98944.19;4375280;32;33238;-86
2024/01/01 11:43:53;;;;;;;;;;;;;;;7.98;71.77;98955.16;4368999;32;35045;-88
2024/01/01 11:46:23;;;;;;;;;;;;;;;8.12;71.91;98941.16;4369600;32;34256;-87
2024/01/01 11:48:56;;;;;;;;;;;;;;;8.35;70.48;98947.69;4367147;32;32647;-87
2024/01/01 11:51:31;;;;;;;;;;;;;;;8.25;70.92;98938.38;4368723;32;33738;-87
2024/01/01 11:54:09;;;;;;;;;;;;;;;8.16;70.42;98951.44;4373809;32;34626;-87
2024/01/01 11:56:49;;;;;;;;;;;;;;;8.04;70.96;98940.41;4367390;32;34661;-87
2024/01/01 11:59:19;;;;;;;;;;;;;;;8.09;70.85;98940.31;4371669;32;32638;-87
2024/01/01 12:01:53;;;;;;;;;;;;;;;8.50;69.71;98947.44;4367957;32;33718;-87
2024/01/01 12:04:22;;;;;;;;;;;;;;;8.39;69.35;98951.09;4369518;32;33760;-88
2024/01/01 12:06:53;;;;;;;;;;;;;;;8.36;69.14;98938.19;4374288;32;33882;-87
2024/01/01 12:09:21;;;;;;;;;;;;;;;8.29;69.69;98948.66;4368686;32;33670;-88
2024/01/01 12:12:02;;;;;;;;;;;;;;;8.27;68.52;98962.47;4365182;32;33140;-87
2024/01/01 12:14:34;;;;;;;;;;;;;;;8.26;69.23;98946.12;4359125;32;34018;-87
2024/01/01 12:17:05;;;;;;;;;;;;;;;8.34;68.88;98952.00;4371810;32;32176;-87
2024/01/01 12:19:37;;;;;;;;;;;;;;;8.32;69.38;98945.16;4372831;32;33229;-88
2024/01/01 12:22:06;;;;;;;;;;;;;;;8.40;69.39;98942.47;4367429;32;33771;-87
2024/01/01 12:24:36;;;;;;;;;;;;;;;8.38;69.36;98933.84;4360608;32;35152;-87
2024/01/01 12:27:04;;;;;;;;;;;;;;;8.26;68.77;98930.62;4373972;32;33940;-86
2024/01/01 12:29:37;;;;;;;;;;;;;;;8.20;68.65;98925.53;4362530;32;33223;-86
2024/01/01 12:32:05;;;;;;;;;;;;;;;8.11;69.02;98923.94;4355715;32;34054;-87
2024/01/01 12:34:34;;;;;;;;;;;;;;;8.42;67.69;98935.56;4369452;32;34757;-87
2024/01/01 12:37:03;;;;;;;;;;;;;;;8.58;67.52;98939.59;4373472;32;35272;-86
2024/01/01 12:39:32;;;;;;;;;;;;;;;8.58;66.96;98944.75;4374675;32;32626;-88
2024/01/01 12:42:04;;;;;;;;;;;;;;;8.42;66.92;98946.72;4371961;32;33692;-87
2024/01/01 12:44:41;;;;;;;;;;;;;;;8.33;67.13;98946.84;4368313;32;35092;-87
2024/01/01 12:47:10;;;;;;;;;;;;;;;8.45;67.01;98961.34;4361136;32;34239;-87
2024/01/01 12:49:41;;;;;;;;;;;;;;;8.43;66.42;98955.34;4366787;32;34268;-88
2024/01/01 12:52:10;;;;;;;;;;;;;;;8.60;65.86;98958.53;4371711;32;33904;-88
2024/01/01 12:54:39;;;;;;;;;;;;;;;8.66;65.87;98960.97;4364891;32;32495;-88
2024/01/01 12:57:08;;;;;;;;;;;;;;;8.74;65.77;98960.84;4370092;32;34038;-87
2024/01/01 12:59:47;;;;;;;;;;;;;;;8.59;66.57;98958.53;4368956;32;33640;-87
2024/01/01 13:02:15;;;;;;;;;;;;;;;8.68;66.86;98969.56;4367297;32;33671;-88
2024/01/01 13:04:44;;;;;;;;;;;;;;;8.74;66.79;98984.97;4371543;32;34710;-88
2024/01/01 13:07:13;;;;;;;;;;;;;;;8.50;66.89;98973.31;4367218;32;34704;-86
2024/01/01 13:09:45;;;;;;;;;;;;;;;8.61;66.53;98973.16;4370439;32;33292;-88
2024/01/01 13:12:16;;;;;;;;;;;;;;;8.50;66.58;98975.03;4366995;32;33586;-87
2024/01/01 13:14:49;;;;;;;;;;;;;;;8.75;65.44;98978.09;4371667;32;34292;-87
2024/01/01 13:17:18;;;;;;;;;;;;;;;8.60;66.47;98988.66;4367389;32;34810;-87
2024/01/01 13:19:47;;;;;;;;;;;;;;;8.79;66.25;98990.06;4370963;32;33774;-88
2024/01/01 13:22:18;;;;;;;;;;;;;;;8.67;67.03;99000.63;4367868;32;33657;-87
2024/01/01 13:24:47;;;;;;;;;;;;;;;8.80;66.41;98994.37;4364823;32;33636;-87
2024/01/01 13:27:17;;;;;;;;;;;;;;;8.64;66.59;98993.75;4368958;32;34657;-87
2024/01/01 13:29:48;;;;;;;;;;;;;;;8.38;67.53;98996.72;4368930;32;32809;-87
2024/01/01 13:32:20;;;;;;;;;;;;;;;8.64;66.22;99003.25;4363417;32;33387;-88
2024/01/01 13:34:51;;;;;;;;;;;;;;;8.65;66.51;99016.19;4365578;32;35335;-87